Malabar, Florida
Current Conditions -  °F | °C
As of 12:53 AM on Wednesday 22 Oct 2014 (Local Time) from KMLB Reporting Station
Clear Clear  
Wind Chill: 71°   Ceiling: Unl
Heat Index: 71°   Visibility: 10mi
Dew Point: 68°   Wind: 5mph
Humidity: 90%   Direction: 220°SW
Pressure: 29.94"   Gusts: NA
Location:  28°N, 80.57°W
Report Text: KMLB 220453Z 22004KT 10SM CLR 22/20 A2994 RMK AO2 SLP137 T02170200 402890217
Loading
Personal Weather Stations






























Interactive Weather Map
Tropical Storm Tracking
New forecast layout! Learn more

10-Day Weather Forecast

Advertisements
Track Severe Weather on mobile